Time;durP1;ratioP1;P1;durP2;ratioP2;P2;SDS_P1;SDS_P2;PMS_P1;PMS_P2;Temp;Humidity;BMP_temperature;BMP_pressure;BME280_temperature;BME280_humidity;BME280_pressure;Samples;Min_cycle;Max_cycle;Signal;HPM_P1;HPM_P2
2023/05/31 00:02:06;;;;;;;11.85;6.05;;;;;;;17.61;100.00;100494.09;4915047;29;20028;-75
2023/05/31 00:04:32;;;;;;;9.13;5.57;;;;;;;17.60;100.00;100490.56;4914822;29;20060;-70
2023/05/31 00:06:57;;;;;;;14.20;5.95;;;;;;;17.22;100.00;100428.50;4914459;29;20111;-70
2023/05/31 00:09:23;;;;;;;12.15;5.85;;;;;;;17.34;100.00;100471.22;4914470;29;20047;-70
2023/05/31 00:11:48;;;;;;;8.35;6.22;;;;;;;17.06;100.00;100414.44;4914836;29;20029;-69
2023/05/31 00:14:13;;;;;;;11.95;5.50;;;;;;;17.31;100.00;100479.91;4914555;29;20383;-69
2023/05/31 00:16:39;;;;;;;11.07;5.30;;;;;;;17.36;100.00;100480.81;4881243;29;20127;-71
2023/05/31 00:19:04;;;;;;;11.00;5.40;;;;;;;16.79;100.00;100451.50;4914502;29;20032;-73
2023/05/31 00:21:30;;;;;;;13.07;5.78;;;;;;;16.77;100.00;100482.78;4897034;29;20032;-71
2023/05/31 00:23:55;;;;;;;9.52;5.07;;;;;;;16.20;100.00;100421.25;4914603;29;20780;-69
2023/05/31 00:26:22;;;;;;;9.30;5.93;;;;;;;16.57;100.00;100479.91;4914756;29;20040;-70
2023/05/31 00:28:47;;;;;;;12.55;5.28;;;;;;;16.60;100.00;100471.28;4914530;29;20038;-69
2023/05/31 00:31:13;;;;;;;7.90;5.10;;;;;;;16.69;100.00;100473.97;4914453;29;20036;-69
2023/05/31 00:33:38;;;;;;;10.68;4.80;;;;;;;16.70;100.00;100474.84;4897557;29;20032;-69
2023/05/31 00:36:04;;;;;;;9.65;5.00;;;;;;;16.81;100.00;100484.56;4914081;29;20384;-70
2023/05/31 00:38:29;;;;;;;11.43;4.95;;;;;;;16.89;100.00;100482.03;4913770;29;20443;-70
2023/05/31 00:40:55;;;;;;;8.15;4.80;;;;;;;16.96;100.00;100486.50;4914140;29;20028;-72
2023/05/31 00:43:20;;;;;;;8.15;5.35;;;;;;;16.86;100.00;100468.06;4914269;29;20032;-69
2023/05/31 00:45:46;;;;;;;10.32;4.78;;;;;;;16.85;100.00;100474.16;4913938;29;20036;-69
2023/05/31 00:48:11;;;;;;;6.43;4.90;;;;;;;16.94;100.00;100490.81;4914355;29;20091;-70
2023/05/31 00:50:37;;;;;;;8.65;6.22;;;;;;;16.70;100.00;100449.66;4913789;29;20454;-69
2023/05/31 00:53:04;;;;;;;14.60;5.70;;;;;;;16.95;100.00;100497.78;4914278;29;20399;-75
2023/05/31 00:55:31;;;;;;;10.02;5.57;;;;;;;16.98;100.00;100470.84;4914254;29;20484;-69
2023/05/31 00:57:57;;;;;;;10.10;5.18;;;;;;;17.13;100.00;100493.63;4913949;29;20086;-69
2023/05/31 01:00:23;;;;;;;9.43;4.60;;;;;;;17.06;100.00;100471.81;4914083;29;20039;-71
2023/05/31 01:02:50;;;;;;;8.65;4.88;;;;;;;17.12;100.00;100481.44;4897120;29;20032;-69
2023/05/31 01:05:16;;;;;;;6.88;4.72;;;;;;;17.15;100.00;100484.09;4913601;29;20028;-69
2023/05/31 01:07:41;;;;;;;6.40;4.68;;;;;;;16.72;100.00;100421.88;4914199;29;20107;-69
2023/05/31 01:10:08;;;;;;;7.78;4.80;;;;;;;17.12;100.00;100497.97;4913823;29;20059;-69
2023/05/31 01:12:57;;;;;;;10.95;5.95;;;;;;;17.20;100.00;100498.03;4914000;29;20038;-74
2023/05/31 01:15:26;;;;;;;8.98;5.15;;;;;;;16.74;100.00;100425.38;4913982;29;20059;-72
2023/05/31 01:18:10;;;;;;;8.63;4.68;;;;;;;17.21;100.00;100498.91;4913496;29;20047;-69
2023/05/31 01:20:38;;;;;;;11.98;4.75;;;;;;;16.77;100.00;100425.44;4913918;29;20039;-71
2023/05/31 01:23:25;;;;;;;9.05;4.80;;;;;;;17.11;100.00;100495.34;4913901;29;20031;-75
2023/05/31 01:26:30;;;;;;;9.85;4.88;;;;;;;17.02;100.00;100492.63;4913832;29;20462;-70
2023/05/31 01:29:00;;;;;;;8.20;4.55;;;;;;;16.91;100.00;100487.25;4913947;29;20111;-70
2023/05/31 01:31:27;;;;;;;13.63;5.25;;;;;;;16.87;100.00;100493.31;4913762;29;20044;-69
2023/05/31 01:33:53;;;;;;;10.32;4.97;;;;;;;16.50;100.00;100441.63;4913757;29;20051;-68
2023/05/31 01:36:19;;;;;;;6.55;4.70;;;;;;;16.76;100.00;100490.56;4913487;29;20063;-70
2023/05/31 01:38:45;;;;;;;9.35;4.32;;;;;;;16.82;100.00;100493.25;4913698;29;20028;-70
2023/05/31 01:41:12;;;;;;;10.88;4.85;;;;;;;16.81;100.00;100476.72;4913758;29;20024;-68
2023/05/31 01:43:43;;;;;;;10.27;4.55;;;;;;;16.89;100.00;100483.78;4913625;29;20153;-69
2023/05/31 01:46:10;;;;;;;7.90;4.43;;;;;;;16.74;100.00;100474.03;4913615;29;20039;-68
2023/05/31 01:48:37;;;;;;;9.07;4.68;;;;;;;16.69;100.00;100487.03;4913423;29;20034;-68
2023/05/31 01:51:03;;;;;;;9.88;4.50;;;;;;;16.70;100.00;100491.38;4914785;29;20470;-69
2023/05/31 01:53:29;;;;;;;6.35;4.55;;;;;;;16.69;100.00;100491.38;4884015;29;20075;-69
2023/05/31 01:55:55;;;;;;;11.98;5.70;;;;;;;16.60;100.00;100482.56;4917164;29;20055;-69
2023/05/31 01:58:21;;;;;;;8.30;4.60;;;;;;;16.48;100.00;100485.00;4916857;29;20032;-68
2023/05/31 02:00:48;;;;;;;9.93;4.85;;;;;;;16.48;100.00;100487.63;4921499;29;20498;-70
2023/05/31 02:03:13;;;;;;;10.95;5.00;;;;;;;16.41;100.00;100477.97;4936117;29;20030;-68
2023/05/31 02:05:57;;;;;;;13.65;5.45;;;;;;;16.44;100.00;100496.25;4935678;29;20036;-69
2023/05/31 02:08:24;;;;;;;7.55;4.57;;;;;;;16.32;100.00;100500.47;4935567;29;20412;-69
2023/05/31 02:10:49;;;;;;;8.85;4.93;;;;;;;16.29;100.00;100489.13;4936008;29;20457;-68
2023/05/31 02:13:15;;;;;;;8.95;5.05;;;;;;;16.05;100.00;100500.03;4935833;29;20091;-69
2023/05/31 02:15:41;;;;;;;8.98;4.78;;;;;;;15.48;100.00;100455.75;4935898;29;20031;-69
2023/05/31 02:18:07;;;;;;;9.07;4.85;;;;;;;15.27;100.00;100480.53;4935448;29;20035;-73
2023/05/31 02:20:33;;;;;;;7.00;4.65;;;;;;;15.55;100.00;100506.16;4935675;29;20825;-69
2023/05/31 02:22:59;;;;;;;6.72;4.97;;;;;;;15.60;100.00;100502.78;4935675;29;20066;-69
2023/05/31 02:25:24;;;;;;;8.50;4.72;;;;;;;15.76;100.00;100503.91;4935848;29;20113;-68
2023/05/31 02:27:50;;;;;;;15.73;5.47;;;;;;;15.73;100.00;100492.59;4935681;29;20032;-71
2023/05/31 02:30:15;;;;;;;8.73;5.00;;;;;;;15.91;100.00;100507.66;4935578;29;20401;-69
2023/05/31 02:32:41;;;;;;;11.50;5.38;;;;;;;16.00;100.00;100500.84;4935271;29;20087;-69
2023/05/31 02:35:11;;;;;;;7.07;4.90;;;;;;;15.99;100.00;100512.13;4935543;29;20020;-68
2023/05/31 02:37:38;;;;;;;7.32;5.22;;;;;;;15.94;100.00;100519.00;4935189;29;20036;-69
2023/05/31 02:40:07;;;;;;;8.90;5.43;;;;;;;15.94;100.00;100528.53;4935480;29;20032;-71
2023/05/31 02:42:34;;;;;;;7.63;4.70;;;;;;;15.94;100.00;100498.16;4935257;29;20032;-69
2023/05/31 02:45:00;;;;;;;9.77;4.85;;;;;;;15.99;100.00;100514.72;4935454;29;20391;-68
2023/05/31 02:47:25;;;;;;;9.90;4.68;;;;;;;15.65;100.00;100446.50;4917841;29;20039;-69
2023/05/31 02:49:51;;;;;;;8.13;4.65;;;;;;;15.93;100.00;100509.41;4935266;29;20032;-68
2023/05/31 02:52:16;;;;;;;10.63;5.45;;;;;;;15.98;100.00;100530.31;4934977;29;20457;-68
2023/05/31 02:54:41;;;;;;;8.82;5.28;;;;;;;15.92;100.00;100514.59;4935068;29;20027;-69
2023/05/31 02:57:07;;;;;;;11.73;4.70;;;;;;;16.15;100.00;100538.41;4935170;29;20027;-74
2023/05/31 02:59:33;;;;;;;10.82;5.60;;;;;;;15.83;100.00;100484.97;4935150;29;20489;-69
2023/05/31 03:01:58;;;;;;;10.20;5.38;;;;;;;16.11;100.00;100547.91;4934194;29;20694;-68
2023/05/31 03:04:25;;;;;;;7.90;5.22;;;;;;;15.99;100.00;100527.75;4935089;29;20027;-69
2023/05/31 03:06:50;;;;;;;8.35;5.28;;;;;;;16.19;100.00;100532.38;4934793;29;20474;-73
2023/05/31 03:09:16;;;;;;;9.30;5.30;;;;;;;15.77;100.00;100473.56;4918682;29;20048;-68
2023/05/31 03:11:43;;;;;;;10.52;5.22;;;;;;;16.18;100.00;100547.13;4915893;29;20063;-68
2023/05/31 03:14:09;;;;;;;11.68;5.65;;;;;;;15.80;100.00;100491.81;4915987;29;20043;-68
2023/05/31 03:16:35;;;;;;;8.57;5.25;;;;;;;16.17;100.00;100547.09;4915416;29;20028;-69
2023/05/31 03:19:00;;;;;;;6.63;5.05;;;;;;;16.14;100.00;100558.34;4915425;29;20103;-71
2023/05/31 03:21:26;;;;;;;6.25;4.90;;;;;;;16.22;100.00;100561.06;4915489;29;20539;-76
2023/05/31 03:23:51;;;;;;;8.50;5.55;;;;;;;15.87;100.00;100482.44;4915624;29;20088;-68
2023/05/31 03:26:16;;;;;;;9.38;5.70;;;;;;;16.33;100.00;100559.50;4915587;29;20036;-68
2023/05/31 03:28:42;;;;;;;8.50;5.45;;;;;;;16.39;100.00;100560.47;4913260;29;20055;-68
2023/05/31 03:31:08;;;;;;;13.90;6.32;;;;;;;15.73;100.00;100440.53;4915198;29;20056;-72
2023/05/31 03:33:35;;;;;;;8.98;5.50;;;;;;;16.48;100.00;100571.00;4915412;29;20031;-68
2023/05/31 03:36:01;;;;;;;10.77;5.43;;;;;;;16.08;100.00;100500.09;4915440;29;20032;-69
2023/05/31 03:38:27;;;;;;;13.38;6.32;;;;;;;16.47;100.00;100564.94;4915535;29;20036;-73
2023/05/31 03:40:53;;;;;;;10.25;5.80;;;;;;;15.79;100.00;100440.63;4893736;29;20590;-68
2023/05/31 03:43:18;;;;;;;11.93;5.90;;;;;;;16.53;100.00;100568.47;4893937;29;20040;-69
2023/05/31 03:45:44;;;;;;;11.02;6.80;;;;;;;16.54;100.00;100562.41;4893513;29;20043;-69
2023/05/31 03:48:09;;;;;;;11.00;7.50;;;;;;;16.42;100.00;100563.97;4892603;29;20495;-69
2023/05/31 03:50:35;;;;;;;10.88;7.25;;;;;;;16.46;100.00;100564.88;4912618;29;20047;-67
2023/05/31 03:53:00;;;;;;;10.48;6.78;;;;;;;16.52;100.00;100569.31;4899104;29;20048;-68
2023/05/31 03:55:26;;;;;;;10.60;7.18;;;;;;;16.08;100.00;100511.38;4884876;29;20498;-72
2023/05/31 03:57:51;;;;;;;10.98;6.63;;;;;;;16.36;100.00;100561.28;4877547;29;20120;-69
2023/05/31 04:00:17;;;;;;;13.35;6.60;;;;;;;16.46;100.00;100575.31;4874580;29;20524;-68
2023/05/31 04:02:42;;;;;;;8.25;6.75;;;;;;;16.51;100.00;100565.84;4878538;29;20418;-69
2023/05/31 04:05:08;;;;;;;10.98;6.80;;;;;;;16.52;100.00;100570.19;4893563;29;20123;-69
2023/05/31 04:07:34;;;;;;;11.10;6.82;;;;;;;16.52;100.00;100577.16;4893428;29;20396;-70
2023/05/31 04:09:59;;;;;;;11.38;6.70;;;;;;;16.58;100.00;100570.28;4893138;29;20087;-68
2023/05/31 04:12:25;;;;;;;11.77;6.72;;;;;;;16.54;100.00;100558.06;4883984;29;20139;-69
2023/05/31 04:14:51;;;;;;;9.35;6.70;;;;;;;16.57;100.00;100568.53;4897815;29;20036;-70
2023/05/31 04:17:16;;;;;;;9.30;6.32;;;;;;;16.51;100.00;100563.25;4897228;29;20497;-70
2023/05/31 04:19:42;;;;;;;13.38;7.45;;;;;;;16.51;100.00;100576.28;4908051;29;20036;-70
2023/05/31 04:22:07;;;;;;;10.60;7.30;;;;;;;16.08;100.00;100498.34;4910595;29;20027;-69
2023/05/31 04:24:33;;;;;;;11.68;7.65;;;;;;;16.50;100.00;100583.22;4899731;29;20085;-71
2023/05/31 04:26:58;;;;;;;11.43;7.45;;;;;;;16.55;100.00;100574.56;4913905;29;20032;-71
2023/05/31 04:29:25;;;;;;;10.23;7.25;;;;;;;16.47;100.00;100575.34;4911379;29;20086;-70
2023/05/31 04:31:51;;;;;;;13.25;6.55;;;;;;;16.44;100.00;100572.69;4914160;29;20177;-70
2023/05/31 04:34:18;;;;;;;10.90;7.32;;;;;;;16.19;100.00;100524.56;4914102;29;20507;-69
2023/05/31 04:36:44;;;;;;;14.35;7.45;;;;;;;16.53;100.00;100578.91;4896735;29;20032;-70
2023/05/31 04:39:14;;;;;;;12.07;7.20;;;;;;;16.38;100.00;100553.50;4913649;29;20031;-71
2023/05/31 04:41:40;;;;;;;11.25;7.70;;;;;;;16.44;100.00;100557.06;4913974;29;20024;-70
2023/05/31 04:44:05;;;;;;;10.38;8.38;;;;;;;16.21;100.00;100516.78;4913670;29;20036;-72
2023/05/31 04:46:32;;;;;;;13.40;9.20;;;;;;;16.39;100.00;100553.50;4914117;29;20039;-72
2023/05/31 04:48:57;;;;;;;11.82;9.82;;;;;;;16.46;100.00;100585.75;4911417;29;20458;-69
2023/05/31 04:51:23;;;;;;;11.57;9.60;;;;;;;16.45;100.00;100578.81;4895394;29;20095;-69
2023/05/31 04:53:48;;;;;;;13.93;10.88;;;;;;;16.31;100.00;100586.38;4895931;29;20036;-72
2023/05/31 04:56:14;;;;;;;13.68;10.43;;;;;;;15.95;100.00;100515.53;4895196;29;20097;-69
2023/05/31 04:58:40;;;;;;;15.43;10.50;;;;;;;16.15;100.00;100528.84;4895237;29;20028;-69
2023/05/31 05:01:06;;;;;;;16.80;9.95;;;;;;;16.69;100.00;100585.22;4895299;29;20108;-74
2023/05/31 05:03:33;;;;;;;12.82;8.98;;;;;;;16.87;100.00;100598.47;4904385;29;20036;-72
2023/05/31 05:06:01;;;;;;;18.63;10.55;;;;;;;17.05;100.00;100600.47;4896673;29;20044;-69
2023/05/31 05:08:27;;;;;;;15.05;10.38;;;;;;;17.19;100.00;100592.81;4913527;29;20062;-67
2023/05/31 05:10:52;;;;;;;15.88;11.40;;;;;;;17.12;100.00;100568.41;4911643;29;20554;-68
2023/05/31 05:13:18;;;;;;;13.07;9.48;;;;;;;17.35;100.00;100590.41;4913314;29;20119;-70
2023/05/31 05:15:43;;;;;;;14.88;9.15;;;;;;;17.47;100.00;100595.75;4913393;29;20035;-67
2023/05/31 05:18:09;;;;;;;13.02;9.23;;;;;;;17.39;100.00;100571.31;4913524;29;20040;-72
2023/05/31 05:20:35;;;;;;;14.38;9.60;;;;;;;17.61;100.00;100598.50;4907645;29;20458;-71
2023/05/31 05:23:06;;;;;;;10.75;9.40;;;;;;;17.70;100.00;100598.59;4913969;29;20119;-70
2023/05/31 05:25:33;;;;;;;12.07;8.27;;;;;;;17.67;100.00;100584.63;4915677;29;20028;-67
2023/05/31 05:27:58;;;;;;;11.85;9.13;;;;;;;17.81;100.00;100584.75;4917373;29;20392;-71
2023/05/31 05:30:25;;;;;;;11.18;8.95;;;;;;;17.93;100.00;100601.41;4917083;29;20522;-70
2023/05/31 05:32:50;;;;;;;12.73;8.93;;;;;;;18.11;100.00;100616.38;4886596;29;20044;-69
2023/05/31 05:35:16;;;;;;;14.45;9.57;;;;;;;18.16;100.00;100589.44;4915643;29;20035;-72
2023/05/31 05:37:41;;;;;;;13.35;9.57;;;;;;;18.13;100.00;100598.13;4915114;29;20047;-68
2023/05/31 05:40:08;;;;;;;19.85;9.27;;;;;;;18.20;100.00;100601.66;4914873;29;20020;-70
2023/05/31 05:42:36;;;;;;;13.80;9.95;;;;;;;18.24;100.00;100606.03;4897659;29;20040;-70
2023/05/31 05:45:06;;;;;;;11.88;9.63;;;;;;;18.32;100.00;100606.09;4915410;29;20067;-68
2023/05/31 05:47:32;;;;;;;13.05;9.60;;;;;;;18.38;100.00;100620.09;4914870;29;20024;-69
2023/05/31 05:49:58;;;;;;;10.98;9.70;;;;;;;18.20;100.00;100562.47;4916050;29;20409;-68
2023/05/31 05:52:23;;;;;;;12.75;10.43;;;;;;;18.50;100.00;100598.38;4917052;29;20024;-68
2023/05/31 05:54:48;;;;;;;12.68;9.90;;;;;;;18.54;100.00;100602.78;4916230;29;20479;-72
2023/05/31 05:57:14;;;;;;;16.13;9.88;;;;;;;18.45;100.00;100552.19;4917128;29;20039;-68
2023/05/31 05:59:41;;;;;;;11.93;9.30;;;;;;;18.91;100.00;100604.75;4916826;29;20056;-68
2023/05/31 06:02:07;;;;;;;12.40;9.05;;;;;;;18.81;100.00;100572.41;4916810;29;20039;-73
2023/05/31 06:04:32;;;;;;;11.60;8.75;;;;;;;19.06;100.00;100617.03;4917047;29;20510;-72
2023/05/31 06:06:58;;;;;;;13.27;9.75;;;;;;;19.08;100.00;100605.69;4916545;29;20028;-69
2023/05/31 06:09:23;;;;;;;12.60;8.13;;;;;;;19.14;100.00;100610.09;4916387;29;20135;-68
2023/05/31 06:11:48;;;;;;;11.60;8.27;;;;;;;18.87;100.00;100556.72;4899547;29;20036;-67
2023/05/31 06:14:14;;;;;;;11.60;9.30;;;;;;;19.21;100.00;100616.22;4916806;29;20494;-66
2023/05/31 06:16:40;;;;;;;11.07;8.38;;;;;;;19.26;100.00;100611.84;4914185;29;20523;-67
2023/05/31 06:19:05;;;;;;;17.45;9.15;;;;;;;19.10;100.00;100576.91;4916849;29;20030;-68
2023/05/31 06:21:31;;;;;;;12.02;8.30;;;;;;;19.34;100.00;100615.38;4916534;29;20036;-67
2023/05/31 06:23:57;;;;;;;13.15;9.13;;;;;;;19.37;100.00;100609.28;4894138;29;20067;-68
2023/05/31 06:26:22;;;;;;;12.30;8.50;;;;;;;19.55;100.00;100604.09;4894747;29;20124;-67
2023/05/31 06:28:48;;;;;;;9.45;8.02;;;;;;;19.68;100.00;100617.22;4894009;29;20045;-68
2023/05/31 06:31:13;;;;;;;12.88;7.97;;;;;;;19.70;100.00;100602.34;4894526;29;20634;-69
2023/05/31 06:33:38;;;;;;;10.38;8.05;;;;;;;19.75;100.00;100597.13;4894851;29;20443;-69
2023/05/31 06:36:04;;;;;;;10.82;7.70;;;;;;;19.66;100.00;100569.19;4894145;29;20483;-73
2023/05/31 06:38:29;;;;;;;10.30;7.72;;;;;;;19.88;100.00;100612.91;4894207;29;20041;-69
2023/05/31 06:40:55;;;;;;;12.38;8.15;;;;;;;19.88;100.00;100601.56;4894616;29;20037;-67
2023/05/31 06:43:20;;;;;;;13.55;8.57;;;;;;;19.97;100.00;100605.94;4894419;29;20048;-70
2023/05/31 06:45:47;;;;;;;12.15;8.13;;;;;;;20.08;100.00;100617.28;4894516;29;20124;-72
2023/05/31 06:48:13;;;;;;;11.90;8.02;;;;;;;20.19;100.00;100623.41;4894708;29;20040;-74
2023/05/31 06:50:38;;;;;;;9.27;7.60;;;;;;;20.31;100.00;100606.78;4894066;29;20045;-74
2023/05/31 06:53:04;;;;;;;9.68;7.57;;;;;;;20.47;100.00;100618.16;4894070;29;20055;-73
2023/05/31 06:55:30;;;;;;;11.95;8.35;;;;;;;20.64;100.00;100614.59;4908743;29;20051;-70
2023/05/31 06:57:56;;;;;;;12.48;7.40;;;;;;;20.49;100.00;100591.91;4913808;29;20035;-67
2023/05/31 07:00:21;;;;;;;7.85;6.60;;;;;;;20.58;100.00;100605.00;4913490;29;20027;-67
2023/05/31 07:02:47;;;;;;;9.93;7.20;;;;;;;20.39;100.00;100570.06;4914182;29;20399;-67
2023/05/31 07:05:13;;;;;;;8.25;6.45;;;;;;;20.68;100.00;100611.09;4915152;29;20036;-67
2023/05/31 07:07:38;;;;;;;12.02;7.22;;;;;;;20.76;100.00;100617.25;4915018;29;20020;-67
2023/05/31 07:10:05;;;;;;;10.85;6.93;;;;;;;20.44;100.00;100549.09;4914627;29;20054;-69
2023/05/31 07:12:30;;;;;;;8.93;6.82;;;;;;;20.74;100.00;100590.13;4915491;29;20047;-66
2023/05/31 07:14:56;;;;;;;8.95;6.20;;;;;;;20.82;100.00;100606.72;4915185;29;20024;-68
2023/05/31 07:17:21;;;;;;;7.93;6.07;;;;;;;20.88;100.00;100618.94;4915361;29;20028;-68
2023/05/31 07:19:48;;;;;;;9.20;6.40;;;;;;;20.56;100.00;100548.16;4915250;29;20364;-66
2023/05/31 07:22:14;;;;;;;8.50;5.53;;;;;;;20.90;100.00;100609.31;4915064;29;20047;-65
2023/05/31 07:24:40;;;;;;;8.20;5.88;;;;;;;20.84;100.00;100609.34;4915004;29;20514;-67
2023/05/31 07:27:07;;;;;;;10.18;5.80;;;;;;;20.98;100.00;100623.25;4915615;29;20092;-71
2023/05/31 07:29:33;;;;;;;10.30;5.63;;;;;;;21.13;100.00;100625.00;4917047;29;20039;-69
2023/05/31 07:31:58;;;;;;;10.82;5.90;;;;;;;20.97;100.00;100579.56;4914701;29;20040;-67
2023/05/31 07:34:23;;;;;;;10.32;6.20;;;;;;;21.16;100.00;100611.84;4914575;29;20068;-64
2023/05/31 07:36:49;;;;;;;10.95;6.07;;;;;;;21.35;100.00;100619.63;4914918;29;20114;-68
2023/05/31 07:39:15;;;;;;;11.50;6.57;;;;;;;21.40;100.00;100614.34;4914779;29;20028;-68
2023/05/31 07:41:41;;;;;;;9.57;5.80;;;;;;;21.52;100.00;100616.03;4914900;29;20055;-66
2023/05/31 07:44:07;;;;;;;11.30;5.55;;;;;;;21.59;100.00;100612.50;4914646;29;20126;-64
2023/05/31 07:46:32;;;;;;;8.30;5.90;;;;;;;21.66;100.00;100619.47;4914750;29;20031;-66
2023/05/31 07:48:58;;;;;;;10.18;5.38;;;;;;;21.71;100.00;100601.03;4913485;29;20029;-65
2023/05/31 07:51:23;;;;;;;9.07;5.65;;;;;;;21.85;100.00;100622.84;4914357;29;20103;-69
2023/05/31 07:53:49;;;;;;;7.78;5.50;;;;;;;21.48;100.00;100557.38;4914503;29;20080;-70
2023/05/31 07:56:14;;;;;;;11.60;6.13;;;;;;;21.96;100.00;100601.75;4897166;29;20028;-65
2023/05/31 07:58:39;;;;;;;9.43;6.15;;;;;;;22.13;100.00;100605.09;4914506;29;20071;-65
2023/05/31 08:01:05;;;;;;;10.05;6.45;;;;;;;22.27;100.00;100627.78;4914712;29;20034;-65
2023/05/31 08:03:31;;;;;;;10.05;6.32;;;;;;;22.21;100.00;100612.06;4914269;29;20036;-67
2023/05/31 08:05:56;;;;;;;10.60;6.45;;;;;;;22.25;100.00;100619.03;4913960;29;20103;-67
2023/05/31 08:08:22;;;;;;;13.48;6.13;;;;;;;22.23;100.00;100616.41;4914413;29;20036;-65
2023/05/31 08:10:47;;;;;;;11.10;6.00;;;;;;;22.38;100.00;100606.66;4914323;29;20515;-66
2023/05/31 08:13:13;;;;;;;7.45;5.38;;;;;;;22.54;100.00;100615.28;4914064;29;20095;-69
2023/05/31 08:15:38;;;;;;;11.23;5.93;;;;;;;22.74;100.00;100618.56;4913925;29;20028;-66
2023/05/31 08:18:04;;;;;;;9.90;5.97;;;;;;;22.81;100.00;100603.56;4914259;29;20036;-65
2023/05/31 08:20:29;;;;;;;6.93;5.28;;;;;;;22.99;100.00;100615.66;4914245;29;20399;-66
2023/05/31 08:23:18;;;;;;;8.73;5.78;;;;;;;23.27;100.00;100617.97;4913697;29;20040;-66
2023/05/31 08:25:43;;;;;;;28.75;8.73;;;;;;;23.37;100.00;100614.31;4873925;29;20085;-67
2023/05/31 08:28:09;;;;;;;9.27;5.55;;;;;;;23.32;100.00;100613.50;4873960;29;20040;-66
2023/05/31 08:30:34;;;;;;;9.75;6.10;;;;;;;23.31;100.00;100614.38;4873295;29;20057;-67
2023/05/31 08:33:00;;;;;;;7.88;6.10;;;;;;;23.35;100.00;100618.75;4858032;29;20033;-69
2023/05/31 08:35:25;;;;;;;8.77;6.13;;;;;;;23.50;100.00;100622.94;4874025;29;20041;-68
2023/05/31 08:37:51;;;;;;;10.02;5.90;;;;;;;23.50;100.00;100585.16;4873759;29;20080;-66
2023/05/31 08:40:16;;;;;;;9.43;6.15;;;;;;;23.50;100.00;100588.69;4858452;29;20045;-70
2023/05/31 08:42:56;;;;;;;8.93;5.80;;;;;;;23.53;100.00;100593.03;4873725;29;20033;-68
2023/05/31 08:45:22;;;;;;;7.25;5.45;;;;;;;23.49;100.00;100575.50;4873921;29;20045;-66
2023/05/31 08:48:13;;;;;;;9.68;5.53;;;;;;;23.80;100.00;100604.91;4873326;29;20538;-68
2023/05/31 08:50:42;;;;;;;6.70;5.18;;;;;;;23.48;99.41;100552.66;4873539;29;20079;-67
2023/05/31 08:53:07;;;;;;;9.25;5.50;;;;;;;23.62;97.27;100553.34;4873886;29;20499;-67
2023/05/31 08:55:36;;;;;;;10.50;5.72;;;;;;;23.87;98.07;100555.59;4874500;29;20119;-67
2023/05/31 08:58:02;;;;;;;7.50;5.85;;;;;;;24.25;95.95;100604.22;4896533;29;20478;-68
2023/05/31 09:00:28;;;;;;;9.95;5.78;;;;;;;24.03;98.32;100530.72;4913273;29;20116;-70
2023/05/31 09:02:54;;;;;;;8.00;5.55;;;;;;;24.53;100.00;100574.66;4913025;29;20028;-68
2023/05/31 09:05:19;;;;;;;9.52;5.85;;;;;;;24.56;96.92;100566.66;4913453;29;20482;-70
2023/05/31 09:07:47;;;;;;;8.25;5.30;;;;;;;24.65;92.28;100561.25;4913495;29;20032;-69
2023/05/31 09:10:14;;;;;;;8.75;4.80;;;;;;;24.47;89.81;100533.41;4913877;29;20055;-69
2023/05/31 09:12:40;;;;;;;7.35;5.60;;;;;;;24.68;89.34;100549.75;4913074;29;20032;-70
2023/05/31 09:15:06;;;;;;;10.43;6.18;;;;;;;24.84;90.11;100568.81;4913708;29;20115;-69
2023/05/31 09:17:32;;;;;;;8.50;5.60;;;;;;;24.90;93.65;100549.31;4913551;29;20111;-66
2023/05/31 09:20:00;;;;;;;10.02;5.28;;;;;;;25.13;94.51;100540.88;4914193;29;20034;-66
2023/05/31 09:22:26;;;;;;;6.97;4.65;;;;;;;24.64;89.22;100480.28;4873377;29;20097;-72
2023/05/31 09:24:59;;;;;;;8.60;5.40;;;;;;;25.00;87.59;100561.44;4873932;29;20074;-70
2023/05/31 09:27:26;;;;;;;7.10;5.22;;;;;;;25.00;90.54;100558.78;4873028;29;20497;-67
2023/05/31 09:29:56;;;;;;;7.22;4.32;;;;;;;24.79;84.53;100558.31;4873379;29;20032;-67
2023/05/31 09:32:21;;;;;;;8.13;5.05;;;;;;;24.67;85.50;100537.47;4887285;29;20631;-67
2023/05/31 09:34:47;;;;;;;7.18;5.20;;;;;;;25.03;82.27;100542.84;4892657;29;20128;-68
2023/05/31 09:37:24;;;;;;;7.55;4.80;;;;;;;25.20;81.53;100555.72;4892542;29;20048;-72
2023/05/31 09:39:55;;;;;;;8.07;5.10;;;;;;;25.37;81.13;100551.84;4892497;29;20043;-67
2023/05/31 09:42:20;;;;;;;9.38;4.80;;;;;;;25.50;82.27;100546.22;4884935;29;20041;-68
2023/05/31 09:44:49;;;;;;;8.57;5.03;;;;;;;25.71;74.58;100551.91;4892973;29;20037;-69
2023/05/31 09:47:14;;;;;;;6.90;4.35;;;;;;;25.76;62.46;100530.66;4892645;29;20124;-67
2023/05/31 09:49:43;;;;;;;8.30;4.20;;;;;;;25.70;66.52;100541.38;4892530;29;20119;-74
2023/05/31 09:52:13;;;;;;;13.40;4.50;;;;;;;25.44;65.48;100541.06;4892385;29;20040;-68
2023/05/31 09:54:39;;;;;;;11.38;4.18;;;;;;;25.31;67.03;100532.53;4913695;29;20059;-68
2023/05/31 09:57:05;;;;;;;6.95;4.40;;;;;;;25.49;70.07;100538.34;4910973;29;20432;-70
2023/05/31 09:59:34;;;;;;;8.82;4.95;;;;;;;25.63;65.38;100530.94;4913459;29;20490;-70
2023/05/31 10:02:01;;;;;;;6.93;4.65;;;;;;;25.77;67.05;100522.66;4911930;29;20111;-68
2023/05/31 10:04:29;;;;;;;9.07;4.57;;;;;;;26.18;66.68;100532.22;4896832;29;20036;-70
2023/05/31 10:06:55;;;;;;;8.63;5.00;;;;;;;26.44;65.70;100526.22;4913450;29;20024;-70
2023/05/31 10:09:21;;;;;;;8.90;4.55;;;;;;;26.63;60.75;100523.88;4913709;29;20619;-70
2023/05/31 10:11:50;;;;;;;8.57;4.47;;;;;;;26.85;60.24;100526.81;4914857;29;20036;-70
2023/05/31 10:14:29;;;;;;;11.40;4.90;;;;;;;26.76;63.73;100488.22;4916824;29;20099;-70
2023/05/31 10:16:56;;;;;;;10.38;4.60;;;;;;;27.08;62.99;100507.56;4917472;29;20028;-70
2023/05/31 10:19:42;;;;;;;11.93;4.82;;;;;;;27.37;63.56;100523.47;4916563;29;20119;-71
2023/05/31 10:22:08;;;;;;;7.25;3.90;;;;;;;27.59;60.13;100521.88;4917322;29;20032;-70
2023/05/31 10:24:45;;;;;;;8.98;4.90;;;;;;;27.43;58.06;100460.53;4898929;29;20040;-70
2023/05/31 10:27:11;;;;;;;10.57;4.97;;;;;;;27.95;57.58;100517.16;4916984;29;20053;-69
2023/05/31 10:29:42;;;;;;;8.75;5.70;;;;;;;28.07;60.42;100507.00;4916588;29;20156;-70
2023/05/31 10:32:17;;;;;;;14.52;5.18;;;;;;;28.23;57.04;100509.97;4917019;29;20040;-70
2023/05/31 10:34:45;;;;;;;6.90;4.55;;;;;;;28.02;56.67;100457.66;4916703;29;20066;-70
2023/05/31 10:37:10;;;;;;;7.93;4.47;;;;;;;28.41;57.79;100500.50;4916743;29;20032;-70
2023/05/31 10:39:53;;;;;;;11.27;4.65;;;;;;;28.45;54.59;100505.69;4916634;29;20489;-70
2023/05/31 10:42:48;;;;;;;6.75;3.60;;;;;;;28.41;51.32;100492.53;4914990;29;20087;-66
2023/05/31 10:45:26;;;;;;;7.50;3.92;;;;;;;28.62;48.17;100497.09;4914580;29;20028;-68
2023/05/31 10:47:56;;;;;;;7.15;4.50;;;;;;;28.71;49.23;100496.75;4916589;29;20144;-68
2023/05/31 10:50:23;;;;;;;6.38;4.22;;;;;;;28.35;50.70;100482.13;4916523;29;20028;-67
2023/05/31 10:52:51;;;;;;;10.40;4.60;;;;;;;28.23;47.57;100438.31;4916461;29;20518;-67
2023/05/31 10:55:22;;;;;;;10.15;4.38;;;;;;;28.50;51.96;100499.28;4916536;29;20024;-68
2023/05/31 10:57:55;;;;;;;8.50;4.03;;;;;;;28.18;52.81;100490.72;4916235;29;20115;-67
2023/05/31 11:00:22;;;;;;;6.03;3.95;;;;;;;27.37;54.22;100426.25;4916512;29;20039;-71
2023/05/31 11:02:54;;;;;;;8.93;4.32;;;;;;;27.62;55.65;100490.88;4916416;29;20107;-69
2023/05/31 11:05:26;;;;;;;6.90;4.38;;;;;;;27.42;56.75;100444.69;4900019;29;20067;-68
2023/05/31 11:07:52;;;;;;;8.15;4.35;;;;;;;28.04;56.31;100479.75;4916220;29;20031;-68
2023/05/31 11:10:28;;;;;;;6.47;3.83;;;;;;;28.43;52.41;100484.50;4915890;29;20052;-68
2023/05/31 11:12:57;;;;;;;6.78;3.80;;;;;;;28.66;50.39;100482.75;4915953;29;20110;-74
2023/05/31 11:15:22;;;;;;;7.07;4.25;;;;;;;28.90;52.66;100478.31;4915765;29;20083;-68